createdAt,value
2023-03-17T00:00:36.723Z,158.90
2023-03-17T00:03:27.136Z,176.60
2023-03-17T00:06:02.035Z,147.00
2023-03-17T00:08:37.250Z,125.30
2023-03-17T00:11:14.182Z,125.90
2023-03-17T00:13:47.353Z,111.90
2023-03-17T00:16:23.138Z,101.70
2023-03-17T00:18:56.825Z,92.20
2023-03-17T00:21:31.797Z,96.70
2023-03-17T00:24:04.175Z,127.60
2023-03-17T00:26:36.964Z,121.40
2023-03-17T00:29:09.992Z,111.00
2023-03-17T00:31:42.613Z,106.60
2023-03-17T00:34:19.520Z,89.20
2023-03-17T00:36:53.634Z,74.90
2023-03-17T00:39:28.182Z,68.10
2023-03-17T00:42:00.709Z,67.50
2023-03-17T00:44:33.244Z,86.70
2023-03-17T00:47:05.810Z,98.90
2023-03-17T00:49:38.159Z,77.10
2023-03-17T00:52:11.448Z,75.00
2023-03-17T00:54:43.707Z,59.50
2023-03-17T00:57:16.280Z,45.60
2023-03-17T00:59:48.765Z,40.40
2023-03-17T01:02:21.213Z,37.90
2023-03-17T01:05:05.530Z,37.60
2023-03-17T01:07:40.766Z,32.30
2023-03-17T01:10:19.543Z,36.70
2023-03-17T01:12:52.320Z,35.60
2023-03-17T01:15:25.712Z,38.50
2023-03-17T01:17:58.559Z,34.60
2023-03-17T01:20:33.058Z,40.60
2023-03-17T01:23:05.739Z,34.90
2023-03-17T01:25:39.318Z,41.60
2023-03-17T01:28:14.387Z,49.80
2023-03-17T01:30:47.518Z,35.30
2023-03-17T01:33:19.804Z,37.80
2023-03-17T01:35:53.086Z,36.70
2023-03-17T01:38:25.348Z,45.50
2023-03-17T01:40:57.665Z,37.00
2023-03-17T01:43:31.591Z,35.20
2023-03-17T01:46:27.767Z,68.90
2023-03-17T01:49:14.738Z,79.10
2023-03-17T01:51:57.691Z,146.90
2023-03-17T01:54:35.878Z,41.50
2023-03-17T01:57:14.154Z,59.90
2023-03-17T01:59:52.033Z,64.50
2023-03-17T02:02:29.067Z,44.00
2023-03-17T02:05:01.907Z,69.50
2023-03-17T02:07:35.537Z,51.10
2023-03-17T02:10:11.028Z,54.10
2023-03-17T02:12:46.088Z,48.00
2023-03-17T02:15:18.606Z,50.20
2023-03-17T02:17:51.064Z,37.10
2023-03-17T02:20:58.761Z,44.70
2023-03-17T02:23:31.872Z,47.30
2023-03-17T02:26:05.309Z,51.40
2023-03-17T02:28:37.608Z,53.50
2023-03-17T02:31:09.929Z,46.90
2023-03-17T02:33:42.801Z,325.70
2023-03-17T02:36:15.836Z,149.20
2023-03-17T02:38:50.373Z,110.00
2023-03-17T02:41:23.501Z,65.70
2023-03-17T02:43:55.853Z,62.80
2023-03-17T02:46:28.671Z,61.90
2023-03-17T02:49:05.767Z,48.80
2023-03-17T02:51:38.296Z,42.20
2023-03-17T02:54:10.902Z,28.50
2023-03-17T02:56:43.160Z,30.70
2023-03-17T02:59:16.278Z,30.30
2023-03-17T03:01:50.734Z,28.20
2023-03-17T03:04:24.048Z,33.40
2023-03-17T03:06:57.086Z,71.80
2023-03-17T03:09:29.904Z,33.70
2023-03-17T03:12:03.084Z,33.10
2023-03-17T03:14:38.010Z,49.10
2023-03-17T03:17:11.799Z,29.30
2023-03-17T03:19:45.087Z,31.60
2023-03-17T03:22:17.446Z,28.10
2023-03-17T03:24:49.873Z,20.90
2023-03-17T03:27:22.214Z,23.00
2023-03-17T03:29:54.600Z,21.40
2023-03-17T03:32:27.747Z,23.10
2023-03-17T03:34:59.982Z,26.30
2023-03-17T03:37:32.323Z,23.20
2023-03-17T03:40:04.968Z,22.20
2023-03-17T03:42:37.273Z,19.10
2023-03-17T03:45:11.440Z,23.20
2023-03-17T03:47:43.871Z,22.00
2023-03-17T03:50:16.890Z,26.00
2023-03-17T03:52:49.263Z,29.90
2023-03-17T03:55:21.775Z,26.50
2023-03-17T03:57:54.154Z,41.40
2023-03-17T04:00:27.377Z,34.60
2023-03-17T04:02:59.722Z,35.30
2023-03-17T04:05:32.101Z,28.20
2023-03-17T04:08:04.493Z,24.20
2023-03-17T04:10:37.099Z,69.20
2023-03-17T04:13:09.685Z,28.10
2023-03-17T04:15:42.698Z,23.20
2023-03-17T04:18:15.151Z,22.90
2023-03-17T04:20:47.567Z,64.70
2023-03-17T04:23:19.933Z,28.00
2023-03-17T04:25:55.109Z,26.80
2023-03-17T04:28:27.798Z,26.80
2023-03-17T04:31:00.135Z,24.40
2023-03-17T04:33:32.445Z,30.00
2023-03-17T04:36:05.240Z,28.40
2023-03-17T04:38:37.548Z,31.90
2023-03-17T04:41:09.929Z,29.30
2023-03-17T04:43:42.472Z,27.70
2023-03-17T04:46:14.905Z,25.20
2023-03-17T04:48:47.293Z,26.70
2023-03-17T04:51:19.551Z,31.50
2023-03-17T04:53:52.601Z,38.60
2023-03-17T04:56:25.075Z,34.20
2023-03-17T04:58:57.452Z,27.70
2023-03-17T05:01:29.835Z,28.90
2023-03-17T05:04:02.174Z,25.40
2023-03-17T05:06:34.466Z,24.50
2023-03-17T05:09:06.947Z,26.40
2023-03-17T05:11:41.434Z,23.50
2023-03-17T05:14:13.758Z,28.60
2023-03-17T05:16:47.867Z,26.10
2023-03-17T05:19:20.613Z,28.30
2023-03-17T05:21:52.933Z,26.10
2023-03-17T05:24:25.322Z,26.80
2023-03-17T05:26:57.788Z,31.20
2023-03-17T05:29:30.198Z,31.20
2023-03-17T05:32:02.543Z,34.00
2023-03-17T05:34:34.764Z,56.10
2023-03-17T05:37:07.777Z,38.40
2023-03-17T05:39:40.075Z,30.80
2023-03-17T05:42:12.919Z,30.40
2023-03-17T05:44:45.322Z,28.30
2023-03-17T05:47:17.624Z,31.70
2023-03-17T05:49:49.851Z,28.20
2023-03-17T05:52:22.232Z,32.30
2023-03-17T05:54:54.836Z,32.70
2023-03-17T05:57:27.469Z,28.70
2023-03-17T06:00:00.009Z,39.00
2023-03-17T06:02:32.465Z,46.40
2023-03-17T06:05:05.038Z,65.70
2023-03-17T06:07:50.951Z,55.60
2023-03-17T06:10:24.388Z,55.50
2023-03-17T06:12:57.207Z,35.60
2023-03-17T06:15:30.219Z,80.00
2023-03-17T06:18:02.692Z,68.10
2023-03-17T06:20:35.672Z,53.50
2023-03-17T06:23:08.075Z,46.90
2023-03-17T06:25:40.462Z,37.90
2023-03-17T06:28:13.544Z,34.90
2023-03-17T06:30:45.874Z,36.50
2023-03-17T06:33:19.324Z,49.50
2023-03-17T06:35:51.810Z,64.00
2023-03-17T06:38:24.855Z,76.10
2023-03-17T06:40:58.033Z,72.10
2023-03-17T06:43:30.396Z,63.70
2023-03-17T06:46:03.249Z,55.40
2023-03-17T06:48:35.674Z,48.40
2023-03-17T06:51:09.226Z,54.60
2023-03-17T06:53:41.636Z,54.70
2023-03-17T06:56:27.378Z,50.50
2023-03-17T06:59:02.174Z,53.70
2023-03-17T07:01:34.514Z,46.60
2023-03-17T07:04:06.962Z,76.70
2023-03-17T07:06:39.488Z,62.70
2023-03-17T07:09:11.871Z,57.30
2023-03-17T07:11:44.211Z,71.50
2023-03-17T07:14:16.625Z,106.70
2023-03-17T07:16:50.329Z,135.70
2023-03-17T07:19:22.695Z,81.10
2023-03-17T07:21:55.897Z,70.50
2023-03-17T07:24:28.566Z,98.00
2023-03-17T07:27:00.970Z,87.10
2023-03-17T07:29:34.103Z,64.20
2023-03-17T07:32:08.328Z,56.60
2023-03-17T07:34:40.845Z,46.90
2023-03-17T07:37:13.431Z,45.40
2023-03-17T07:39:47.422Z,43.90
2023-03-17T07:42:19.873Z,38.40
2023-03-17T07:44:52.303Z,31.20
2023-03-17T07:47:24.584Z,45.10
2023-03-17T07:49:57.406Z,57.80
2023-03-17T07:52:29.734Z,42.10
2023-03-17T07:55:02.636Z,45.80
2023-03-17T07:57:35.037Z,55.80
2023-03-17T08:00:10.480Z,40.10
2023-03-17T08:02:53.688Z,47.10
2023-03-17T08:05:32.741Z,46.30
2023-03-17T08:08:06.773Z,51.70
2023-03-17T08:10:39.302Z,41.40
2023-03-17T08:13:11.605Z,36.80
2023-03-17T08:15:43.964Z,43.40
2023-03-17T08:18:16.168Z,45.80
2023-03-17T08:20:48.632Z,29.40
2023-03-17T08:23:21.600Z,44.60
2023-03-17T08:25:59.608Z,28.40
2023-03-17T08:28:32.712Z,27.10
2023-03-17T08:31:13.806Z,30.50
2023-03-17T08:33:49.017Z,28.20
2023-03-17T08:36:22.365Z,26.80
2023-03-17T08:38:55.409Z,35.10
2023-03-17T08:41:28.912Z,30.70
2023-03-17T08:44:02.160Z,32.60
2023-03-17T08:46:35.123Z,30.90
2023-03-17T08:49:08.151Z,28.90
2023-03-17T08:51:41.981Z,22.40
2023-03-17T08:54:15.357Z,27.00
2023-03-17T08:56:47.830Z,37.70
2023-03-17T08:59:20.058Z,21.80
2023-03-17T09:01:52.639Z,20.80
2023-03-17T09:04:26.021Z,16.10
2023-03-17T09:07:03.873Z,24.60
2023-03-17T09:09:36.753Z,22.00
2023-03-17T09:12:10.180Z,22.40
2023-03-17T09:14:44.162Z,26.80
2023-03-17T09:17:16.801Z,25.40
2023-03-17T09:19:49.294Z,28.30
2023-03-17T09:22:21.777Z,30.00
2023-03-17T09:24:54.382Z,21.30
2023-03-17T09:27:26.714Z,23.50
2023-03-17T09:29:58.984Z,26.60
2023-03-17T09:32:31.378Z,19.50
2023-03-17T09:35:03.975Z,18.20
2023-03-17T09:37:36.341Z,22.90
2023-03-17T09:40:13.670Z,18.00
2023-03-17T09:42:54.515Z,23.10
2023-03-17T09:45:34.024Z,20.70
2023-03-17T09:48:38.980Z,17.50
2023-03-17T09:51:14.038Z,19.50
2023-03-17T09:53:53.396Z,17.30
2023-03-17T09:56:28.009Z,22.40
2023-03-17T09:59:06.062Z,12.70
2023-03-17T10:01:41.954Z,16.60
2023-03-17T10:04:21.281Z,22.30
2023-03-17T10:06:59.403Z,23.30
2023-03-17T10:09:40.309Z,45.50
2023-03-17T10:12:19.707Z,38.20
2023-03-17T10:14:59.933Z,27.60
2023-03-17T10:17:35.758Z,31.60
2023-03-17T10:20:14.623Z,28.80
2023-03-17T10:22:50.412Z,27.30
2023-03-17T10:25:25.761Z,17.00
2023-03-17T10:28:01.695Z,18.50
2023-03-17T10:30:35.945Z,20.30
2023-03-17T10:33:08.926Z,24.50
2023-03-17T10:35:41.598Z,14.30
2023-03-17T10:38:21.034Z,15.50
2023-03-17T10:41:00.714Z,17.70
2023-03-17T10:43:36.811Z,11.20
2023-03-17T10:46:18.826Z,23.40
2023-03-17T10:48:56.581Z,16.00
2023-03-17T10:51:33.557Z,14.20
2023-03-17T10:54:11.256Z,12.20
2023-03-17T10:56:47.667Z,12.30
2023-03-17T10:59:27.543Z,15.80
2023-03-17T11:02:02.327Z,16.40
2023-03-17T11:04:36.848Z,15.20
2023-03-17T11:07:16.597Z,14.20
2023-03-17T11:09:52.101Z,17.90
2023-03-17T11:12:28.604Z,17.80
2023-03-17T11:15:03.870Z,16.80
2023-03-17T11:17:53.256Z,22.80
2023-03-17T11:20:54.422Z,25.60
2023-03-17T11:23:48.768Z,15.10
2023-03-17T11:26:41.807Z,15.60
2023-03-17T11:29:28.144Z,13.40
2023-03-17T11:32:12.490Z,23.40
2023-03-17T11:34:56.933Z,16.20
2023-03-17T11:37:45.451Z,18.90
2023-03-17T11:40:22.418Z,24.70
2023-03-17T11:43:07.373Z,21.30
2023-03-17T11:45:48.948Z,16.50
2023-03-17T11:48:30.061Z,16.80
2023-03-17T11:51:10.448Z,23.50
2023-03-17T11:54:08.038Z,18.60
2023-03-17T11:56:47.341Z,29.10
2023-03-17T11:59:31.550Z,22.60
2023-03-17T12:02:16.375Z,20.60
2023-03-17T12:04:54.490Z,18.70
2023-03-17T12:07:31.566Z,15.90
2023-03-17T12:10:17.432Z,16.10
2023-03-17T12:12:54.623Z,11.50
2023-03-17T12:15:33.901Z,12.30
2023-03-17T12:18:13.333Z,14.80
2023-03-17T12:20:52.218Z,17.00
2023-03-17T12:23:34.118Z,18.40
2023-03-17T12:26:12.457Z,21.80
2023-03-17T12:28:52.364Z,20.60
2023-03-17T12:31:29.495Z,15.50
2023-03-17T12:34:08.045Z,15.20
2023-03-17T12:36:41.570Z,25.60
2023-03-17T12:39:16.383Z,16.20
2023-03-17T12:42:13.642Z,16.70
2023-03-17T12:45:12.022Z,17.10
2023-03-17T12:48:00.114Z,19.80
2023-03-17T12:50:56.524Z,17.80
2023-03-17T12:53:33.473Z,21.40
2023-03-17T12:56:19.528Z,23.10
2023-03-17T12:58:54.172Z,22.00
2023-03-17T13:01:33.792Z,21.20
2023-03-17T13:04:19.539Z,27.40
2023-03-17T13:07:00.922Z,21.10
2023-03-17T13:09:43.272Z,21.40
2023-03-17T13:12:57.141Z,20.00
2023-03-17T13:16:01.349Z,28.20
2023-03-17T13:18:54.142Z,24.30
2023-03-17T13:21:33.497Z,17.90
2023-03-17T13:24:43.788Z,27.60
2023-03-17T13:27:36.765Z,19.00
2023-03-17T13:30:39.553Z,27.60
2023-03-17T13:33:24.477Z,25.10
2023-03-17T13:36:19.574Z,22.30
2023-03-17T13:39:19.221Z,33.90
2023-03-17T13:42:35.611Z,22.10
2023-03-17T13:45:23.368Z,21.20
2023-03-17T13:48:15.808Z,14.50
2023-03-17T13:50:48.275Z,19.40
2023-03-17T13:53:29.924Z,15.50
2023-03-17T13:56:19.993Z,22.40
2023-03-17T13:59:12.685Z,23.70
2023-03-17T14:01:48.817Z,19.60
2023-03-17T14:04:25.834Z,24.00
2023-03-17T14:07:06.987Z,15.30
2023-03-17T14:09:42.197Z,15.60
2023-03-17T14:12:22.285Z,15.10
2023-03-17T14:15:07.564Z,20.50
2023-03-17T14:17:45.765Z,19.70
2023-03-17T14:20:27.101Z,18.10
2023-03-17T14:23:02.980Z,11.70
2023-03-17T14:25:37.616Z,29.60
2023-03-17T14:28:14.142Z,14.70
2023-03-17T14:30:54.265Z,17.70
2023-03-17T14:33:28.110Z,16.80
2023-03-17T14:36:04.369Z,13.20
2023-03-17T14:38:38.651Z,16.10
2023-03-17T14:41:20.834Z,16.90
2023-03-17T14:43:58.005Z,19.70
2023-03-17T14:46:37.171Z,12.30
2023-03-17T14:49:18.859Z,14.80
2023-03-17T14:51:54.318Z,20.80
2023-03-17T14:54:28.972Z,39.60
2023-03-17T14:57:05.076Z,17.10
2023-03-17T14:59:39.620Z,26.20
2023-03-17T15:02:24.081Z,22.20
2023-03-17T15:04:59.345Z,33.80
2023-03-17T15:07:37.283Z,33.10
2023-03-17T15:10:17.673Z,43.40
2023-03-17T15:12:50.310Z,29.90
2023-03-17T15:15:27.620Z,27.90
2023-03-17T15:18:04.165Z,35.60
2023-03-17T15:20:37.589Z,32.50
2023-03-17T15:23:19.007Z,47.40
2023-03-17T15:25:56.025Z,45.90
2023-03-17T15:28:31.228Z,203.60
2023-03-17T15:31:15.665Z,63.90
2023-03-17T15:33:47.992Z,77.90
2023-03-17T15:36:31.766Z,43.90
2023-03-17T15:39:05.372Z,74.80
2023-03-17T15:41:37.683Z,44.40
2023-03-17T15:44:10.084Z,62.20
2023-03-17T15:46:42.412Z,32.90
2023-03-17T15:49:15.492Z,34.20
2023-03-17T15:51:47.814Z,30.10
2023-03-17T15:54:20.219Z,40.40
2023-03-17T15:56:52.559Z,27.00
2023-03-17T15:59:24.978Z,24.40
2023-03-17T16:01:57.795Z,19.90
2023-03-17T16:04:30.278Z,32.80
2023-03-17T16:07:02.916Z,35.30
2023-03-17T16:09:36.038Z,32.50
2023-03-17T16:12:10.367Z,70.60
2023-03-17T16:14:43.101Z,42.60
2023-03-17T16:17:22.132Z,57.00
2023-03-17T16:19:54.663Z,55.80
2023-03-17T16:22:39.505Z,94.40
2023-03-17T16:25:24.920Z,82.50
2023-03-17T16:27:59.748Z,62.60
2023-03-17T16:30:34.435Z,79.40
2023-03-17T16:35:43.045Z,46.30
2023-03-17T16:38:17.875Z,35.30
2023-03-17T16:40:53.162Z,31.60
2023-03-17T16:43:28.439Z,45.70
2023-03-17T16:46:03.565Z,39.30
2023-03-17T16:48:36.555Z,43.40
2023-03-17T16:51:10.708Z,52.70
2023-03-17T16:53:43.150Z,70.60
2023-03-17T16:56:20.038Z,65.50
2023-03-17T16:58:52.462Z,51.40
2023-03-17T17:01:27.806Z,60.20
2023-03-17T17:04:00.318Z,58.00
2023-03-17T17:06:32.972Z,38.60
2023-03-17T17:09:05.455Z,62.30
2023-03-17T17:11:37.748Z,70.80
2023-03-17T17:14:10.107Z,91.50
2023-03-17T17:16:42.779Z,55.40
2023-03-17T17:19:18.624Z,34.60
2023-03-17T17:21:50.980Z,35.70
2023-03-17T17:24:23.298Z,30.20
2023-03-17T17:26:55.664Z,31.30
2023-03-17T17:29:29.667Z,43.90
2023-03-17T17:32:04.306Z,27.60
2023-03-17T17:34:36.618Z,38.40
2023-03-17T17:37:10.263Z,42.20
2023-03-17T17:39:42.532Z,38.90
2023-03-17T17:42:15.025Z,42.30
2023-03-17T17:44:47.896Z,36.40
2023-03-17T17:47:20.440Z,31.20
2023-03-17T17:49:52.720Z,43.10
2023-03-17T17:52:25.174Z,31.30
2023-03-17T17:54:57.800Z,39.90
2023-03-17T17:57:30.128Z,36.90
2023-03-17T18:00:02.607Z,21.00
2023-03-17T18:02:40.905Z,26.40
2023-03-17T18:05:14.371Z,33.00
2023-03-17T18:07:46.638Z,20.80
2023-03-17T18:10:22.380Z,27.40
2023-03-17T18:12:55.652Z,52.00
2023-03-17T18:15:28.955Z,29.40
2023-03-17T18:18:01.366Z,36.50
2023-03-17T18:20:33.958Z,21.20
2023-03-17T18:23:06.266Z,33.40
2023-03-17T18:25:38.699Z,67.70
2023-03-17T18:28:11.806Z,79.90
2023-03-17T18:30:44.596Z,74.40
2023-03-17T18:33:20.596Z,76.10
2023-03-17T18:35:55.707Z,51.00
2023-03-17T18:40:58.865Z,33.70
2023-03-17T18:43:31.398Z,27.80
2023-03-17T18:46:03.976Z,29.60
2023-03-17T18:48:36.434Z,22.20
2023-03-17T18:51:08.949Z,25.10
2023-03-17T18:53:41.242Z,22.70
2023-03-17T18:56:14.830Z,27.10
2023-03-17T18:58:47.272Z,35.90
2023-03-17T19:01:19.661Z,32.50
2023-03-17T19:03:52.382Z,32.10
2023-03-17T19:06:25.464Z,35.60
2023-03-17T19:08:57.755Z,31.40
2023-03-17T19:11:30.282Z,33.20
2023-03-17T19:14:03.704Z,40.00
2023-03-17T19:16:36.147Z,29.00
2023-03-17T19:19:08.674Z,23.50
2023-03-17T19:21:41.103Z,29.30
2023-03-17T19:24:14.360Z,36.40
2023-03-17T19:26:46.647Z,29.80
2023-03-17T19:29:19.081Z,35.00
2023-03-17T19:31:51.342Z,34.80
2023-03-17T19:34:23.928Z,20.50
2023-03-17T19:36:56.444Z,34.10
2023-03-17T19:39:28.726Z,34.80
2023-03-17T19:42:01.455Z,46.10
2023-03-17T19:44:33.801Z,32.10
2023-03-17T19:47:08.265Z,26.50
2023-03-17T19:49:41.980Z,35.70
2023-03-17T19:52:14.732Z,45.70
2023-03-17T19:54:47.542Z,24.40
2023-03-17T19:57:21.027Z,29.80
2023-03-17T19:59:53.366Z,37.80
2023-03-17T20:02:25.694Z,26.30
2023-03-17T20:04:58.022Z,31.20
2023-03-17T20:07:30.721Z,29.00
2023-03-17T20:10:03.439Z,31.00
2023-03-17T20:12:38.080Z,45.30
2023-03-17T20:15:14.048Z,28.50
2023-03-17T20:17:46.431Z,61.40
2023-03-17T20:20:19.414Z,33.80
2023-03-17T20:22:52.046Z,35.10
2023-03-17T20:25:24.387Z,59.30
2023-03-17T20:27:56.695Z,47.00
2023-03-17T20:30:29.081Z,110.30
2023-03-17T20:33:02.182Z,104.40
2023-03-17T20:35:34.931Z,40.00
2023-03-17T20:38:07.489Z,33.30
2023-03-17T20:40:39.978Z,34.00
2023-03-17T20:43:13.099Z,30.20
2023-03-17T20:45:45.999Z,47.90
2023-03-17T20:48:18.404Z,65.10
2023-03-17T20:50:51.428Z,134.20
2023-03-17T20:53:23.657Z,50.10
2023-03-17T20:55:56.254Z,42.40
2023-03-17T20:58:28.957Z,32.50
2023-03-17T21:01:01.946Z,44.60
2023-03-17T21:03:34.216Z,38.60
2023-03-17T21:06:06.723Z,39.80
2023-03-17T21:08:39.679Z,39.40
2023-03-17T21:11:16.551Z,73.40
2023-03-17T21:13:49.297Z,103.20
2023-03-17T21:16:23.930Z,70.40
2023-03-17T21:18:56.982Z,47.70
2023-03-17T21:21:29.741Z,51.60
2023-03-17T21:24:02.867Z,41.30
2023-03-17T21:26:35.344Z,38.80
2023-03-17T21:29:07.762Z,38.00
2023-03-17T21:31:40.100Z,31.20
2023-03-17T21:34:13.339Z,41.50
2023-03-17T21:36:45.572Z,42.00
2023-03-17T21:39:18.204Z,34.00
2023-03-17T21:41:51.030Z,32.00
2023-03-17T21:44:23.640Z,42.80
2023-03-17T21:46:56.616Z,42.50
2023-03-17T21:49:28.962Z,42.30
2023-03-17T21:52:01.354Z,23.70
2023-03-17T21:54:33.632Z,30.40
2023-03-17T21:57:06.406Z,152.70
2023-03-17T21:59:38.847Z,144.60
2023-03-17T22:02:13.684Z,58.10
2023-03-17T22:04:46.995Z,48.10
2023-03-17T22:07:19.658Z,30.50
2023-03-17T22:09:57.097Z,42.20
2023-03-17T22:12:29.378Z,36.90
2023-03-17T22:15:01.644Z,46.60
2023-03-17T22:17:35.028Z,38.10
2023-03-17T22:20:09.176Z,36.20
2023-03-17T22:22:41.565Z,31.50
2023-03-17T22:25:13.907Z,56.00
2023-03-17T22:27:46.167Z,33.30
2023-03-17T22:30:19.128Z,38.20
2023-03-17T22:32:51.713Z,31.70
2023-03-17T22:35:25.126Z,25.20
2023-03-17T22:37:57.429Z,29.90
2023-03-17T22:40:30.255Z,34.50
2023-03-17T22:43:03.020Z,26.80
2023-03-17T22:45:35.445Z,32.70
2023-03-17T22:48:08.166Z,39.50
2023-03-17T22:50:42.958Z,24.00
2023-03-17T22:53:15.558Z,62.10
2023-03-17T22:55:48.259Z,30.50
2023-03-17T22:58:20.471Z,51.70
2023-03-17T23:00:53.795Z,43.40
2023-03-17T23:03:27.291Z,43.00
2023-03-17T23:06:01.821Z,37.00
2023-03-17T23:08:36.194Z,46.10
2023-03-17T23:11:11.815Z,37.60
2023-03-17T23:13:45.382Z,37.50
2023-03-17T23:16:19.033Z,28.30
2023-03-17T23:18:52.812Z,38.60
2023-03-17T23:21:27.832Z,27.10
2023-03-17T23:24:00.962Z,26.90
2023-03-17T23:26:36.010Z,27.10
2023-03-17T23:29:09.615Z,25.20
2023-03-17T23:31:42.517Z,23.70
2023-03-17T23:34:14.789Z,27.00
2023-03-17T23:36:47.131Z,21.80
2023-03-17T23:39:19.477Z,24.60
2023-03-17T23:41:51.825Z,26.00
2023-03-17T23:44:24.569Z,23.00
2023-03-17T23:46:57.253Z,20.10
2023-03-17T23:49:29.604Z,25.10
2023-03-17T23:52:01.913Z,24.60
2023-03-17T23:54:34.226Z,21.40
2023-03-17T23:57:06.657Z,25.00
2023-03-17T23:59:39.042Z,25.90
